createdAt,value
2022-10-31T00:01:35.846Z,83.02
2022-10-31T00:06:34.752Z,83.44
2022-10-31T00:11:33.823Z,83.21
2022-10-31T00:16:33.003Z,83.65
2022-10-31T00:21:33.123Z,83.29
2022-10-31T00:26:33.206Z,83.53
2022-10-31T00:31:31.971Z,82.72
2022-10-31T00:36:32.150Z,83.69
2022-10-31T00:41:31.005Z,83.57
2022-10-31T00:46:29.721Z,83.23
2022-10-31T00:51:28.393Z,83.28
2022-10-31T00:56:27.170Z,83.24
2022-10-31T01:01:26.218Z,83.40
2022-10-31T01:06:25.128Z,83.37
2022-10-31T01:11:24.446Z,83.86
2022-10-31T01:16:25.914Z,83.33
2022-10-31T01:21:28.050Z,83.92
2022-10-31T01:26:32.192Z,83.15
2022-10-31T01:31:37.267Z,83.07
2022-10-31T01:36:38.668Z,82.50
2022-10-31T01:41:43.380Z,82.60
2022-10-31T01:46:47.847Z,82.18
2022-10-31T01:51:53.670Z,82.91
2022-10-31T01:56:56.737Z,83.07
2022-10-31T02:01:55.869Z,83.27
2022-10-31T02:07:03.559Z,83.28
2022-10-31T02:12:03.871Z,82.87
2022-10-31T02:17:02.842Z,83.40
2022-10-31T02:22:07.744Z,83.40
2022-10-31T02:27:33.589Z,84.00
2022-10-31T02:32:38.441Z,84.01
2022-10-31T02:37:51.447Z,83.29
2022-10-31T02:48:19.858Z,83.73
2022-10-31T02:53:18.777Z,83.42
2022-10-31T02:58:23.825Z,83.84
2022-10-31T03:04:01.489Z,84.09
2022-10-31T03:09:38.729Z,83.45
2022-10-31T03:14:49.336Z,83.41
2022-10-31T03:19:52.988Z,83.86
2022-10-31T03:24:53.832Z,84.60
2022-10-31T03:29:57.144Z,84.46
2022-10-31T03:35:00.419Z,84.07
2022-10-31T03:40:03.090Z,84.28
2022-10-31T03:45:06.577Z,83.97
2022-10-31T03:50:08.609Z,83.99
2022-10-31T03:55:16.946Z,84.36
2022-10-31T04:00:17.635Z,84.64
2022-10-31T04:05:20.991Z,84.40
2022-10-31T04:10:22.232Z,84.20
2022-10-31T04:15:23.810Z,84.18
2022-10-31T04:20:37.624Z,85.19
2022-10-31T04:25:37.627Z,84.84
2022-10-31T04:30:36.730Z,85.16
2022-10-31T04:35:36.118Z,85.30
2022-10-31T04:40:34.905Z,85.01
2022-10-31T04:46:05.973Z,84.57
2022-10-31T04:51:04.924Z,84.62
2022-10-31T04:56:04.864Z,85.28
2022-10-31T05:01:10.879Z,84.60
2022-10-31T05:06:09.749Z,85.02
2022-10-31T05:11:12.832Z,85.23
2022-10-31T05:16:11.960Z,84.25
2022-10-31T05:21:30.981Z,84.20
2022-10-31T05:26:35.078Z,85.18
2022-10-31T05:31:33.842Z,84.18
2022-10-31T05:36:33.669Z,84.57
2022-10-31T05:41:42.481Z,85.64
2022-10-31T05:46:48.087Z,85.14
2022-10-31T05:52:05.562Z,85.18
2022-10-31T05:57:11.491Z,86.02
2022-10-31T06:02:10.259Z,85.71
2022-10-31T06:07:27.740Z,84.38
2022-10-31T06:12:26.592Z,85.25
2022-10-31T06:18:03.430Z,84.61
2022-10-31T06:23:07.461Z,84.98
2022-10-31T06:28:07.254Z,83.64
2022-10-31T06:33:24.622Z,83.88
2022-10-31T06:38:33.034Z,83.73
2022-10-31T06:43:33.674Z,84.95
2022-10-31T06:48:51.324Z,85.13
2022-10-31T06:54:04.931Z,84.13
2022-10-31T06:59:03.882Z,83.45
2022-10-31T07:04:38.224Z,83.14
2022-10-31T07:09:37.254Z,82.88
2022-10-31T07:14:37.367Z,82.82
2022-10-31T07:19:36.318Z,92.07
2022-10-31T07:24:35.601Z,88.81
2022-10-31T07:30:04.344Z,76.49
2022-10-31T07:35:04.987Z,72.67
2022-10-31T07:40:19.434Z,71.02
2022-10-31T07:45:20.358Z,71.77
2022-10-31T07:50:42.120Z,65.78
2022-10-31T07:56:03.938Z,71.01
2022-10-31T08:01:02.902Z,72.92
2022-10-31T08:06:11.454Z,73.46
2022-10-31T08:11:30.641Z,73.70
2022-10-31T08:16:30.631Z,73.11
2022-10-31T08:21:33.758Z,72.89
2022-10-31T08:26:33.657Z,73.65
2022-10-31T08:31:34.475Z,72.34
2022-10-31T08:36:54.228Z,71.51
2022-10-31T08:41:59.653Z,71.54
2022-10-31T08:46:58.443Z,70.78
2022-10-31T08:51:57.159Z,71.12
2022-10-31T08:57:00.049Z,70.91
2022-10-31T09:02:19.151Z,70.26
2022-10-31T09:07:21.777Z,69.95
2022-10-31T09:12:20.932Z,69.91
2022-10-31T09:17:27.727Z,69.72
2022-10-31T09:22:46.849Z,69.32
2022-10-31T09:27:45.693Z,68.25
2022-10-31T09:32:44.404Z,67.40
2022-10-31T09:37:43.104Z,66.79
2022-10-31T09:43:16.793Z,66.34
2022-10-31T09:48:54.072Z,64.90
2022-10-31T09:54:12.375Z,65.33
2022-10-31T09:59:29.228Z,66.09
2022-10-31T10:04:33.804Z,65.44
2022-10-31T10:09:42.122Z,65.09
2022-10-31T10:15:16.614Z,63.83
2022-10-31T10:20:33.648Z,62.88
2022-10-31T10:25:41.024Z,61.93
2022-10-31T10:30:52.065Z,62.86
2022-10-31T10:36:01.326Z,61.47
2022-10-31T10:41:05.246Z,61.91
2022-10-31T10:46:44.337Z,61.13
2022-10-31T10:52:19.236Z,60.54
2022-10-31T10:57:25.329Z,59.77
2022-10-31T11:02:27.011Z,59.33
2022-10-31T11:07:25.810Z,59.21
2022-10-31T11:12:33.496Z,59.85
2022-10-31T11:17:34.110Z,59.67
2022-10-31T11:22:33.273Z,60.27
2022-10-31T11:27:32.363Z,59.97
2022-10-31T11:32:31.212Z,59.95
2022-10-31T11:37:36.480Z,60.27
2022-10-31T11:42:43.647Z,59.48
2022-10-31T11:47:56.737Z,59.49
2022-10-31T11:52:58.312Z,59.84
2022-10-31T11:57:57.362Z,58.82
2022-10-31T12:03:17.835Z,59.46
2022-10-31T12:08:16.619Z,59.70
2022-10-31T12:14:03.490Z,59.71
2022-10-31T12:19:07.507Z,60.14
2022-10-31T12:24:20.017Z,60.10
2022-10-31T12:29:32.237Z,60.99
2022-10-31T12:34:52.968Z,60.55
2022-10-31T12:40:04.988Z,60.21
2022-10-31T12:45:14.259Z,59.29
2022-10-31T12:50:36.165Z,59.57
2022-10-31T12:55:47.793Z,59.92
2022-10-31T13:00:57.933Z,59.84
2022-10-31T13:06:00.149Z,59.61
2022-10-31T13:11:21.360Z,58.92
2022-10-31T13:16:25.113Z,59.30
2022-10-31T13:21:50.640Z,58.37
2022-10-31T13:26:53.391Z,58.72
2022-10-31T13:31:52.386Z,59.31
2022-10-31T13:37:01.474Z,59.82
2022-10-31T13:42:43.429Z,60.14
2022-10-31T13:47:44.159Z,58.99
2022-10-31T13:52:43.797Z,59.14
2022-10-31T13:57:46.006Z,59.27
2022-10-31T14:02:49.540Z,59.45
2022-10-31T14:07:48.844Z,60.29
2022-10-31T14:12:49.366Z,61.41
2022-10-31T14:17:51.537Z,60.31
2022-10-31T14:22:51.120Z,61.47
2022-10-31T14:27:52.992Z,63.35
2022-10-31T14:33:23.024Z,64.56
2022-10-31T14:38:45.408Z,65.15
2022-10-31T14:44:14.944Z,66.86
2022-10-31T14:49:43.110Z,68.78
2022-10-31T14:54:47.182Z,69.60
2022-10-31T14:59:54.630Z,70.46
2022-10-31T15:04:56.683Z,70.98
2022-10-31T15:10:00.644Z,71.98
2022-10-31T15:15:12.793Z,72.45
2022-10-31T15:20:18.089Z,73.39
2022-10-31T15:25:22.360Z,73.84
2022-10-31T15:30:28.343Z,74.84
2022-10-31T15:35:29.521Z,76.42
2022-10-31T15:40:29.258Z,76.00
2022-10-31T15:45:31.461Z,76.45
2022-10-31T15:50:41.343Z,76.93
2022-10-31T15:55:50.054Z,77.33
2022-10-31T16:01:25.389Z,77.44
2022-10-31T16:06:24.306Z,77.90
2022-10-31T16:11:34.998Z,78.33
2022-10-31T16:16:36.519Z,78.42
2022-10-31T16:21:38.279Z,78.87
2022-10-31T16:26:40.118Z,78.97
2022-10-31T16:31:41.484Z,79.08
2022-10-31T16:36:40.796Z,79.22
2022-10-31T16:41:42.288Z,79.54
2022-10-31T16:46:41.135Z,79.93
2022-10-31T16:51:39.877Z,80.04
2022-10-31T16:56:39.317Z,80.17
2022-10-31T17:01:39.897Z,80.27
2022-10-31T17:06:38.569Z,80.56
2022-10-31T17:11:43.073Z,80.73
2022-10-31T17:16:44.269Z,80.84
2022-10-31T17:21:42.955Z,81.03
2022-10-31T17:26:42.374Z,81.11
2022-10-31T17:31:42.386Z,81.36
2022-10-31T17:36:41.211Z,81.04
2022-10-31T17:41:39.870Z,81.02
2022-10-31T17:46:39.158Z,81.47
2022-10-31T17:51:38.244Z,82.19
2022-10-31T17:56:36.900Z,82.09
2022-10-31T18:01:35.744Z,82.18
2022-10-31T18:06:34.618Z,82.12
2022-10-31T18:11:33.439Z,83.20
2022-10-31T18:16:32.478Z,83.19
2022-10-31T18:21:32.554Z,82.31
2022-10-31T18:26:31.645Z,82.79
2022-10-31T18:31:30.485Z,82.71
2022-10-31T18:36:29.232Z,82.17
2022-10-31T18:41:27.992Z,81.97
2022-10-31T18:46:27.923Z,81.43
2022-10-31T18:51:27.373Z,81.46
2022-10-31T18:56:28.077Z,81.68
2022-10-31T19:01:26.852Z,82.00
2022-10-31T19:06:27.386Z,82.59
2022-10-31T19:11:26.499Z,82.08
2022-10-31T19:16:25.274Z,82.71
2022-10-31T19:21:24.536Z,81.93
2022-10-31T19:26:24.854Z,82.60
2022-10-31T19:31:24.206Z,83.08
2022-10-31T19:36:23.824Z,83.61
2022-10-31T19:41:26.214Z,83.11
2022-10-31T19:46:51.755Z,83.23
2022-10-31T19:51:44.068Z,83.29
2022-10-31T19:56:42.777Z,83.26
2022-10-31T20:01:41.730Z,82.80
2022-10-31T20:06:41.396Z,82.83
2022-10-31T20:11:40.883Z,83.08
2022-10-31T20:16:39.853Z,82.37
2022-10-31T20:21:40.550Z,82.54
2022-10-31T20:26:40.803Z,82.27
2022-10-31T20:31:40.022Z,83.44
2022-10-31T20:36:38.868Z,82.29
2022-10-31T20:41:38.545Z,82.10
2022-10-31T20:46:37.306Z,82.02
2022-10-31T20:51:36.407Z,82.14
2022-10-31T20:56:35.459Z,82.51
2022-10-31T21:01:36.691Z,82.71
2022-10-31T21:06:35.666Z,83.05
2022-10-31T21:11:34.609Z,82.99
2022-10-31T21:16:36.247Z,82.72
2022-10-31T21:21:37.015Z,82.71
2022-10-31T21:26:39.514Z,88.89
2022-10-31T21:31:40.050Z,82.41
2022-10-31T21:36:39.208Z,82.67
2022-10-31T21:41:37.977Z,82.32
2022-10-31T21:46:38.986Z,82.64
2022-10-31T21:51:37.781Z,82.82
2022-10-31T21:56:36.885Z,83.42
2022-10-31T22:01:36.159Z,83.40
2022-10-31T22:06:36.029Z,84.09
2022-10-31T22:11:35.052Z,83.92
2022-10-31T22:16:36.347Z,83.87
2022-10-31T22:21:44.227Z,84.23
2022-10-31T22:26:43.095Z,84.36
2022-10-31T22:31:44.338Z,84.41
2022-10-31T22:36:44.563Z,84.50
2022-10-31T22:41:43.238Z,84.36
2022-10-31T22:46:41.974Z,84.98
2022-10-31T22:51:41.678Z,85.66
2022-10-31T22:56:40.557Z,85.31
2022-10-31T23:01:39.639Z,85.18
2022-10-31T23:06:39.033Z,85.56
2022-10-31T23:11:39.595Z,86.33
2022-10-31T23:16:47.608Z,86.87
2022-10-31T23:21:55.018Z,87.17
2022-10-31T23:27:10.921Z,86.27
2022-10-31T23:32:36.129Z,85.95
2022-10-31T23:37:37.172Z,86.05
2022-10-31T23:42:35.915Z,85.76
2022-10-31T23:47:35.821Z,86.46
2022-10-31T23:52:37.158Z,86.17
2022-10-31T23:57:35.931Z,88.43
